Diqing Airport


Codes: ZPDQ/DIG
Name: Diqing Airport
City: Shangri-La
Country: China
Elevation: 0 ft.
Wikipedia:

Photos at Diqing Airport


   Photos courtesy of SpottingLog. You can add your own sightings and photos by signing up for a free trial today.



No photos found.

Weather at Diqing Airport


Time (UTC)DescriptionTempratureWindCloud coverageVisibilityPressureHumidity
25-Jun-2024 12:00Light Rain12°C2 mph, SE100%10000m1010hPa91%
25-Jun-2024 15:00Moderate Rain12°C2 mph, SE100%5679m1011hPa94%
25-Jun-2024 18:00Moderate Rain12°C2 mph, SE100%10000m1011hPa96%
25-Jun-2024 21:00Light Rain11°C4 mph, SE100%10000m1012hPa98%
26-Jun-2024 00:00Light Rain11°C4 mph, SE100%10000m1013hPa97%
26-Jun-2024 03:00Light Rain12°C4 mph, S100%9751m1013hPa94%
26-Jun-2024 06:00Light Rain12°C4 mph, S100%10000m1012hPa93%
26-Jun-2024 09:00Light Rain13°C4 mph, SW100%10000m1011hPa91%
26-Jun-2024 12:00Light Rain12°C2 mph, SW99%10000m1012hPa94%
26-Jun-2024 15:00Overcast Clouds10°C2 mph, S100%10000m1015hPa98%
26-Jun-2024 18:00Overcast Clouds10°C2 mph, S99%10000m1014hPa98%
26-Jun-2024 21:00Light Rain11°C2 mph, N100%0m1013hPa99%
27-Jun-2024 00:00Overcast Clouds11°C2 mph, N100%0m1013hPa99%
27-Jun-2024 03:00Light Rain12°C2 mph, SW100%2653m1013hPa95%
27-Jun-2024 06:00Light Rain15°C4 mph, W100%10000m1010hPa81%
27-Jun-2024 09:00Light Rain13°C4 mph, SW100%10000m1010hPa92%
27-Jun-2024 12:00Light Rain11°C2 mph, SW100%10000m1011hPa98%
27-Jun-2024 15:00Overcast Clouds11°C2 mph, N100%0m1013hPa99%
27-Jun-2024 18:00Overcast Clouds11°C2 mph, SW100%45m1012hPa99%
27-Jun-2024 21:00Light Rain11°C2 mph, SW100%240m1010hPa99%
28-Jun-2024 00:00Light Rain11°C2 mph, SW100%294m1010hPa99%
28-Jun-2024 03:00Light Rain11°C2 mph, SW100%10000m1010hPa97%
28-Jun-2024 06:00Light Rain11°C2 mph, W100%6135m1010hPa96%
28-Jun-2024 09:00Moderate Rain11°C4 mph, NW100%6519m1009hPa97%
28-Jun-2024 12:00Light Rain10°C2 mph, W100%10000m1011hPa98%
28-Jun-2024 15:00Overcast Clouds8°C2 mph, N91%10000m1013hPa98%
28-Jun-2024 18:00Overcast Clouds7°C2 mph, NE96%8102m1013hPa98%
28-Jun-2024 21:00Overcast Clouds8°C2 mph, N100%9892m1012hPa97%
29-Jun-2024 00:00Overcast Clouds9°C2 mph, N96%10000m1012hPa92%
29-Jun-2024 03:00Overcast Clouds16°C4 mph, W94%10000m1008hPa62%
29-Jun-2024 06:00Light Rain18°C7 mph, SW96%10000m1005hPa61%
29-Jun-2024 09:00Light Rain17°C7 mph, SW100%10000m1003hPa69%
29-Jun-2024 12:00Light Rain12°C4 mph, SW98%10000m1007hPa94%
29-Jun-2024 15:00Light Rain10°C2 mph, N100%0m1011hPa99%
29-Jun-2024 18:00Overcast Clouds11°C2 mph, N100%0m1010hPa99%
29-Jun-2024 21:00Light Rain11°C2 mph, W100%3050m1009hPa96%
30-Jun-2024 00:00Light Rain11°C2 mph, NW100%10000m1010hPa95%
30-Jun-2024 03:00Light Rain14°C2 mph, NW97%10000m1008hPa76%
30-Jun-2024 06:00Light Rain16°C4 mph, SW96%10000m1004hPa67%
30-Jun-2024 09:00Light Rain18°C7 mph, SW55%10000m1001hPa64%